Time;durP1;ratioP1;P1;durP2;ratioP2;P2;SDS_P1;SDS_P2;PMS_P1;PMS_P2;Temp;Humidity;BMP_temperature;BMP_pressure;BME280_temperature;BME280_humidity;BME280_pressure;Samples;Min_cycle;Max_cycle;Signal;HPM_P1;HPM_P2
2022/03/06 00:00:25;;;;;;;27.83;24.87;;;0.50;99.90;;;;;;4977264;28;20508;-72
2022/03/06 00:02:51;;;;;;;29.40;26.27;;;0.50;99.90;;;;;;5000717;28;20457;-72
2022/03/06 00:05:19;;;;;;;28.77;24.20;;;0.40;99.90;;;;;;5001441;28;20466;-71
2022/03/06 00:07:46;;;;;;;27.23;24.53;;;0.40;99.90;;;;;;5006205;28;20469;-71
2022/03/06 00:10:13;;;;;;;37.03;25.00;;;0.40;99.90;;;;;;5006816;28;20543;-72
2022/03/06 00:12:42;;;;;;;34.47;25.80;;;0.30;99.90;;;;;;5001583;28;20468;-73
2022/03/06 00:15:09;;;;;;;30.70;26.50;;;0.30;99.90;;;;;;4999226;28;20462;-73
2022/03/06 00:17:36;;;;;;;41.20;26.07;;;0.20;99.90;;;;;;5004199;28;20839;-74
2022/03/06 00:20:08;;;;;;;28.20;25.20;;;0.10;99.90;;;;;;4999428;28;21012;-72
2022/03/06 00:22:35;;;;;;;31.70;25.37;;;0.00;99.90;;;;;;4997706;28;20559;-73
2022/03/06 00:25:01;;;;;;;29.57;24.20;;;0.00;99.90;;;;;;5002084;28;20487;-73
2022/03/06 00:27:29;;;;;;;25.83;23.27;;;-0.20;99.90;;;;;;5004000;28;20514;-71
2022/03/06 00:29:59;;;;;;;28.27;24.10;;;-0.30;99.90;;;;;;4998028;28;20466;-72
2022/03/06 00:32:26;;;;;;;28.40;24.23;;;-0.40;99.90;;;;;;5000059;28;20458;-71
2022/03/06 00:34:53;;;;;;;28.63;24.40;;;-0.60;99.90;;;;;;4994390;28;20468;-73
2022/03/06 00:37:20;;;;;;;27.60;24.90;;;-0.70;99.90;;;;;;5001240;28;21007;-72
2022/03/06 00:39:46;;;;;;;34.30;25.27;;;-0.70;99.90;;;;;;5003733;28;20459;-73
2022/03/06 00:42:13;;;;;;;31.37;25.00;;;-0.80;99.90;;;;;;4996963;28;20952;-73
2022/03/06 00:44:41;;;;;;;29.33;25.20;;;-0.90;99.90;;;;;;4997331;28;20513;-72
2022/03/06 00:47:09;;;;;;;30.37;26.03;;;-1.00;99.90;;;;;;5003697;28;20964;-71
2022/03/06 00:49:36;;;;;;;30.60;23.47;;;-1.10;99.90;;;;;;4997965;28;21000;-70
2022/03/06 00:52:04;;;;;;;27.83;25.03;;;-1.20;99.90;;;;;;4999242;28;20551;-70
2022/03/06 00:54:31;;;;;;;29.73;26.23;;;-1.30;99.90;;;;;;4999966;28;20529;-74
2022/03/06 00:56:59;;;;;;;28.93;25.40;;;-1.30;99.90;;;;;;5000952;28;20465;-74
2022/03/06 00:59:32;;;;;;;29.20;25.37;;;-1.40;99.90;;;;;;5002578;28;20972;-74
2022/03/06 01:01:59;;;;;;;34.10;26.60;;;-1.40;99.90;;;;;;5002840;28;21204;-72
2022/03/06 01:04:28;;;;;;;36.93;27.07;;;-1.30;99.90;;;;;;4997737;28;20840;-73
2022/03/06 01:06:55;;;;;;;32.07;24.67;;;-1.30;99.90;;;;;;4991865;28;20498;-72
2022/03/06 01:09:22;;;;;;;33.27;26.33;;;-1.40;99.90;;;;;;5002357;28;20485;-73
2022/03/06 01:11:51;;;;;;;30.30;26.63;;;-1.40;99.90;;;;;;4998835;28;20466;-74
2022/03/06 01:14:18;;;;;;;27.80;25.30;;;-1.50;99.90;;;;;;5003724;28;20463;-73
2022/03/06 01:16:45;;;;;;;28.43;25.43;;;-1.50;99.90;;;;;;5005541;28;20462;-72
2022/03/06 01:19:12;;;;;;;28.63;24.70;;;-1.50;99.90;;;;;;4993878;28;20470;-73
2022/03/06 01:21:41;;;;;;;31.50;27.70;;;-1.50;99.90;;;;;;5000631;28;20468;-72
2022/03/06 01:24:10;;;;;;;30.03;26.77;;;-1.60;99.90;;;;;;4997637;28;20488;-73
2022/03/06 01:26:36;;;;;;;32.37;26.40;;;-1.60;99.90;;;;;;4999495;28;20501;-72
2022/03/06 01:29:05;;;;;;;29.90;26.60;;;-1.60;99.90;;;;;;5001369;28;20470;-73
2022/03/06 01:31:32;;;;;;;34.10;27.50;;;-1.70;99.90;;;;;;5008442;28;20472;-73
2022/03/06 01:34:02;;;;;;;30.67;27.43;;;-1.70;99.90;;;;;;4994420;28;20461;-73
2022/03/06 01:36:29;;;;;;;33.30;28.30;;;-1.70;99.90;;;;;;4996280;28;21040;-72
2022/03/06 01:38:58;;;;;;;32.03;26.23;;;-1.70;99.90;;;;;;4995950;28;20524;-73
2022/03/06 01:41:25;;;;;;;34.50;29.10;;;-1.40;99.90;;;;;;5001832;28;20465;-73
2022/03/06 01:43:53;;;;;;;29.17;26.00;;;-1.30;99.90;;;;;;5006267;28;20472;-72
2022/03/06 01:46:19;;;;;;;29.57;26.20;;;-1.30;99.90;;;;;;5000376;28;20478;-74
2022/03/06 01:48:47;;;;;;;29.87;26.77;;;-1.40;99.90;;;;;;4997932;28;20472;-72
2022/03/06 01:51:15;;;;;;;30.17;26.83;;;-1.40;99.90;;;;;;5004761;28;20472;-73
2022/03/06 01:53:42;;;;;;;30.73;27.30;;;-1.50;99.90;;;;;;4999021;28;20509;-75
2022/03/06 01:56:12;;;;;;;33.53;28.83;;;-1.50;99.90;;;;;;4996802;28;20467;-73
2022/03/06 01:58:39;;;;;;;35.97;26.97;;;-1.60;99.90;;;;;;5002799;28;20459;-72
2022/03/06 02:01:06;;;;;;;32.23;26.60;;;-1.60;99.90;;;;;;5003286;28;20468;-72
2022/03/06 02:03:34;;;;;;;31.77;26.90;;;-1.70;99.90;;;;;;5000027;28;20453;-71
2022/03/06 02:06:04;;;;;;;35.00;30.17;;;-1.70;99.90;;;;;;5001456;28;20501;-73
2022/03/06 02:08:31;;;;;;;35.50;30.23;;;-1.70;99.90;;;;;;5001192;28;20550;-73
2022/03/06 02:10:58;;;;;;;33.97;28.77;;;-1.70;99.90;;;;;;4996854;28;20469;-74
2022/03/06 02:13:26;;;;;;;37.97;30.00;;;-1.70;99.90;;;;;;5003109;28;20482;-72
2022/03/06 02:15:54;;;;;;;33.83;28.10;;;-1.70;99.90;;;;;;5001527;28;20479;-71
2022/03/06 02:18:21;;;;;;;35.30;29.20;;;-1.70;99.90;;;;;;5001928;28;20469;-74
2022/03/06 02:20:48;;;;;;;34.00;28.80;;;-1.70;99.90;;;;;;5001404;28;21569;-74
2022/03/06 02:23:17;;;;;;;34.13;28.10;;;-1.70;99.90;;;;;;5004953;28;20465;-74
2022/03/06 02:25:44;;;;;;;33.87;29.97;;;-1.50;99.90;;;;;;4996577;28;20482;-73
2022/03/06 02:28:11;;;;;;;37.43;29.63;;;-1.50;99.90;;;;;;4991280;28;20800;-70
2022/03/06 02:30:40;;;;;;;32.53;28.00;;;-1.60;99.90;;;;;;4996121;28;20465;-72
2022/03/06 02:33:09;;;;;;;32.77;29.33;;;-1.60;99.90;;;;;;5002864;28;20467;-73
2022/03/06 02:35:37;;;;;;;36.03;27.93;;;-1.60;99.90;;;;;;5003628;28;20469;-70
2022/03/06 02:38:05;;;;;;;35.40;27.17;;;-1.60;99.90;;;;;;5005624;28;20500;-73
2022/03/06 02:40:42;;;;;;;35.73;31.00;;;-1.70;99.90;;;;;;5000258;28;20841;-71
2022/03/06 02:43:12;;;;;;;31.20;28.00;;;-1.70;99.90;;;;;;4999991;28;20492;-72
2022/03/06 02:45:40;;;;;;;32.23;28.80;;;-1.70;99.90;;;;;;5005018;28;20464;-72
2022/03/06 02:48:09;;;;;;;33.23;29.13;;;-1.70;99.90;;;;;;4998176;28;20493;-72
2022/03/06 02:50:38;;;;;;;35.13;30.53;;;-1.70;99.90;;;;;;5003747;28;20548;-71
2022/03/06 02:53:06;;;;;;;32.93;29.37;;;-1.70;99.90;;;;;;5005389;28;20469;-73
2022/03/06 02:55:36;;;;;;;34.70;30.40;;;-1.80;99.90;;;;;;5005406;28;20465;-73
2022/03/06 02:58:04;;;;;;;38.40;29.23;;;-1.70;99.90;;;;;;4997369;28;20470;-71
2022/03/06 03:00:31;;;;;;;33.80;30.10;;;-1.80;99.90;;;;;;5001547;28;20994;-72
2022/03/06 03:02:58;;;;;;;37.27;30.27;;;-1.80;99.90;;;;;;5007060;28;20492;-72
2022/03/06 03:05:25;;;;;;;34.13;29.97;;;-1.80;99.90;;;;;;5004514;28;20473;-70
2022/03/06 03:07:53;;;;;;;32.00;28.10;;;-1.70;99.90;;;;;;5003024;28;20532;-71
2022/03/06 03:10:23;;;;;;;33.97;30.37;;;-1.70;99.90;;;;;;4998537;28;21143;-73
2022/03/06 03:12:54;;;;;;;34.73;31.13;;;-1.70;99.90;;;;;;5000375;28;20469;-71
2022/03/06 03:15:21;;;;;;;34.93;30.03;;;-1.70;99.90;;;;;;5001714;28;21477;-71
2022/03/06 03:17:48;;;;;;;32.13;28.50;;;-1.70;99.90;;;;;;4998079;28;20465;-73
2022/03/06 03:20:17;;;;;;;33.20;29.70;;;-1.70;99.90;;;;;;5003673;28;20464;-71
2022/03/06 03:22:44;;;;;;;33.73;29.40;;;-1.70;99.90;;;;;;5002959;28;20469;-71
2022/03/06 03:25:12;;;;;;;38.47;30.10;;;-1.60;99.90;;;;;;5000123;28;20992;-72
2022/03/06 03:27:39;;;;;;;34.00;30.37;;;-1.70;99.90;;;;;;5002693;28;20823;-73
2022/03/06 03:30:09;;;;;;;33.43;29.77;;;-1.70;99.90;;;;;;5005078;28;20462;-72
2022/03/06 03:32:37;;;;;;;37.07;29.30;;;-1.70;99.90;;;;;;5000388;28;20452;-70
2022/03/06 03:35:04;;;;;;;35.20;29.60;;;-1.80;99.90;;;;;;5009792;28;20832;-71
2022/03/06 03:37:31;;;;;;;36.20;29.83;;;-1.70;99.90;;;;;;5004947;28;20561;-73
2022/03/06 03:39:58;;;;;;;34.10;29.50;;;-1.70;99.90;;;;;;5002707;28;20462;-74
2022/03/06 03:42:25;;;;;;;33.07;29.30;;;-1.70;99.90;;;;;;5000526;28;20457;-74
2022/03/06 03:44:52;;;;;;;31.70;28.07;;;-1.60;99.90;;;;;;5001959;28;20497;-72
2022/03/06 03:47:20;;;;;;;39.27;29.53;;;-1.70;99.90;;;;;;5002662;28;20484;-72
2022/03/06 03:49:48;;;;;;;38.73;30.80;;;-1.60;99.90;;;;;;5004421;28;20465;-73
2022/03/06 03:52:16;;;;;;;33.77;30.10;;;-1.60;99.90;;;;;;5000554;28;20461;-74
2022/03/06 03:54:42;;;;;;;33.50;29.97;;;-1.60;99.90;;;;;;5004867;28;20469;-72
2022/03/06 03:57:10;;;;;;;34.53;28.37;;;-1.60;99.90;;;;;;4997654;28;20762;-71
2022/03/06 03:59:36;;;;;;;31.73;28.10;;;-1.60;99.90;;;;;;5000663;28;20465;-73
2022/03/06 04:02:05;;;;;;;36.57;29.83;;;-1.60;99.90;;;;;;5002105;28;20480;-72
2022/03/06 04:04:34;;;;;;;33.20;29.87;;;-1.60;99.90;;;;;;5001522;28;20553;-73
2022/03/06 04:07:00;;;;;;;36.20;29.03;;;-1.60;99.90;;;;;;5000113;28;20485;-72
2022/03/06 04:09:28;;;;;;;36.47;29.40;;;-1.70;99.90;;;;;;5002672;28;20465;-72
2022/03/06 04:11:55;;;;;;;32.37;28.47;;;-1.70;99.90;;;;;;5001882;28;21003;-72
2022/03/06 04:14:23;;;;;;;30.50;27.40;;;-1.70;99.90;;;;;;5004452;28;20461;-73
2022/03/06 04:16:50;;;;;;;39.77;29.73;;;-1.80;99.90;;;;;;4998679;28;20881;-73
2022/03/06 04:19:17;;;;;;;35.13;29.00;;;-1.80;99.90;;;;;;5002008;28;20472;-73
2022/03/06 04:21:45;;;;;;;37.90;29.17;;;-1.90;99.90;;;;;;5003752;28;20461;-71
2022/03/06 04:24:12;;;;;;;33.47;29.90;;;-1.90;99.90;;;;;;4995805;28;21476;-74
2022/03/06 04:26:39;;;;;;;30.57;27.27;;;-2.00;99.90;;;;;;5001998;28;20496;-72
2022/03/06 04:29:07;;;;;;;32.20;28.30;;;-2.10;99.90;;;;;;5002284;28;20461;-71
2022/03/06 04:31:34;;;;;;;33.37;29.27;;;-2.20;99.90;;;;;;4996159;28;20497;-72
2022/03/06 04:34:01;;;;;;;32.97;29.27;;;-2.30;99.90;;;;;;4997932;28;20479;-73
2022/03/06 04:36:28;;;;;;;31.23;28.07;;;-2.30;99.90;;;;;;5002068;28;20493;-73
2022/03/06 04:38:58;;;;;;;32.53;29.00;;;-2.20;99.90;;;;;;5002272;28;20556;-73
2022/03/06 04:41:25;;;;;;;39.60;29.30;;;-2.20;99.90;;;;;;4998921;28;20469;-74
2022/03/06 04:43:52;;;;;;;35.63;29.93;;;-2.30;99.90;;;;;;5000518;28;20841;-73
2022/03/06 04:46:21;;;;;;;32.97;28.70;;;-2.30;99.90;;;;;;4996394;28;20454;-72
2022/03/06 04:48:48;;;;;;;31.90;28.13;;;-2.20;99.90;;;;;;5000242;28;20465;-72
2022/03/06 04:51:17;;;;;;;35.90;28.97;;;-2.30;99.90;;;;;;5002195;28;20460;-71
2022/03/06 04:53:44;;;;;;;32.13;28.90;;;-2.30;99.90;;;;;;5002391;28;20549;-73
2022/03/06 04:56:13;;;;;;;32.77;29.40;;;-2.30;99.90;;;;;;5000471;28;20500;-74
2022/03/06 04:58:40;;;;;;;32.90;28.30;;;-2.40;99.90;;;;;;4999726;28;21025;-73
2022/03/06 05:01:07;;;;;;;34.10;29.87;;;-2.30;99.90;;;;;;4996321;28;20460;-72
2022/03/06 05:03:35;;;;;;;38.10;29.63;;;-2.30;99.90;;;;;;4986269;28;20472;-74
2022/03/06 05:06:02;;;;;;;37.80;29.87;;;-2.30;99.90;;;;;;4970474;28;20466;-73
2022/03/06 05:08:29;;;;;;;31.10;27.87;;;-2.30;99.90;;;;;;4970726;28;20574;-72
2022/03/06 05:10:56;;;;;;;35.50;28.77;;;-2.30;99.90;;;;;;4973202;28;20472;-72
2022/03/06 05:13:25;;;;;;;35.40;30.07;;;-2.20;99.90;;;;;;4973473;28;20864;-73
2022/03/06 05:15:52;;;;;;;36.90;27.90;;;-2.20;99.90;;;;;;4972973;28;20472;-71
2022/03/06 05:18:19;;;;;;;30.50;27.50;;;-2.20;99.90;;;;;;4974055;28;22454;-73
2022/03/06 05:20:46;;;;;;;32.10;28.67;;;-2.20;99.90;;;;;;4973043;28;20477;-71
2022/03/06 05:23:13;;;;;;;32.97;28.20;;;-2.20;99.90;;;;;;4971516;28;20500;-71
2022/03/06 05:25:40;;;;;;;35.60;29.97;;;-2.10;99.90;;;;;;4971778;28;21443;-73
2022/03/06 05:28:07;;;;;;;33.67;29.47;;;-2.10;99.90;;;;;;4972084;28;20505;-72
2022/03/06 05:30:35;;;;;;;33.20;28.97;;;-2.10;99.90;;;;;;4971572;28;20794;-72
2022/03/06 05:33:02;;;;;;;36.50;27.63;;;-2.10;99.90;;;;;;4972307;28;20469;-73
2022/03/06 05:35:29;;;;;;;32.87;29.53;;;-2.20;99.90;;;;;;4972401;28;21095;-75
2022/03/06 05:37:56;;;;;;;38.17;29.07;;;-2.20;99.90;;;;;;4970101;28;21148;-75
2022/03/06 05:40:23;;;;;;;32.03;28.23;;;-2.20;99.90;;;;;;4973160;28;20462;-74
2022/03/06 05:42:50;;;;;;;35.77;28.63;;;-2.20;99.90;;;;;;4973799;28;21135;-74
2022/03/06 05:45:17;;;;;;;31.50;28.20;;;-2.30;99.90;;;;;;4973468;28;20458;-73
2022/03/06 05:47:45;;;;;;;32.93;29.43;;;-2.30;99.90;;;;;;4973082;28;20527;-72
2022/03/06 05:50:13;;;;;;;33.10;27.90;;;-2.40;99.90;;;;;;4972472;28;21005;-73
2022/03/06 05:52:40;;;;;;;33.53;28.13;;;-2.30;99.90;;;;;;4970840;28;20490;-72
2022/03/06 05:55:08;;;;;;;36.63;28.90;;;-2.20;99.90;;;;;;4972353;28;20813;-73
2022/03/06 05:57:35;;;;;;;39.87;29.30;;;-2.20;99.90;;;;;;4972694;28;20459;-72
2022/03/06 06:00:08;;;;;;;36.43;28.47;;;-2.30;99.90;;;;;;4973348;28;20481;-73
2022/03/06 06:02:35;;;;;;;36.47;29.90;;;-2.40;99.90;;;;;;4971953;28;20566;-73
2022/03/06 06:05:04;;;;;;;33.17;29.47;;;-2.40;99.90;;;;;;4970367;28;20543;-71
2022/03/06 06:07:32;;;;;;;35.17;28.30;;;-2.40;99.90;;;;;;4970066;28;20493;-74
2022/03/06 06:12:39;;;;;;;30.80;26.70;;;-2.50;99.90;;;;;;4972309;28;20885;-71
2022/03/06 06:15:09;;;;;;;35.10;29.20;;;-2.50;99.90;;;;;;4972515;28;20604;-74
2022/03/06 06:17:36;;;;;;;38.50;30.50;;;-2.60;99.90;;;;;;4973560;28;21170;-73
2022/03/06 06:20:07;;;;;;;33.40;29.80;;;-2.60;99.90;;;;;;4972313;28;20455;-74
2022/03/06 06:22:35;;;;;;;37.17;30.00;;;-2.50;99.90;;;;;;4970984;28;21001;-74
2022/03/06 06:25:03;;;;;;;32.97;29.47;;;-2.60;99.90;;;;;;4973442;28;20472;-74
2022/03/06 06:27:30;;;;;;;31.90;28.40;;;-2.60;99.90;;;;;;4972689;28;20493;-73
2022/03/06 06:29:57;;;;;;;34.20;28.93;;;-2.60;99.90;;;;;;4971326;28;20561;-74
2022/03/06 06:32:24;;;;;;;35.87;29.97;;;-2.70;99.90;;;;;;4972207;28;20824;-74
2022/03/06 06:34:51;;;;;;;32.27;28.83;;;-2.70;99.90;;;;;;4972972;28;21373;-72
2022/03/06 06:37:19;;;;;;;33.40;28.50;;;-2.60;99.90;;;;;;4970614;28;20705;-72
2022/03/06 06:39:46;;;;;;;38.97;30.77;;;-2.50;99.90;;;;;;4972642;28;21108;-72
2022/03/06 06:42:12;;;;;;;38.93;30.17;;;-2.50;99.90;;;;;;4972319;28;20881;-74
2022/03/06 06:44:40;;;;;;;37.07;30.50;;;-2.50;99.90;;;;;;4970657;28;20476;-73
2022/03/06 06:47:07;;;;;;;41.73;29.93;;;-2.60;99.90;;;;;;4973288;28;21029;-73
2022/03/06 06:49:35;;;;;;;36.50;31.77;;;-2.60;99.90;;;;;;4973003;28;20511;-73
2022/03/06 06:52:01;;;;;;;39.40;31.30;;;-2.50;99.90;;;;;;4998150;28;20568;-74
2022/03/06 06:54:29;;;;;;;40.73;30.50;;;-2.50;99.90;;;;;;5001012;28;20479;-74
2022/03/06 06:56:56;;;;;;;35.97;32.37;;;-2.40;99.90;;;;;;5001233;28;20478;-73
2022/03/06 06:59:23;;;;;;;36.43;32.40;;;-2.30;99.90;;;;;;4970988;28;20469;-72
2022/03/06 07:01:50;;;;;;;47.60;33.73;;;-2.20;99.90;;;;;;4969474;28;20469;-74
2022/03/06 07:04:17;;;;;;;43.10;33.33;;;-2.00;99.90;;;;;;4969665;28;20568;-74
2022/03/06 07:06:44;;;;;;;40.47;32.90;;;-1.80;99.90;;;;;;4968485;28;21322;-72
2022/03/06 07:09:11;;;;;;;41.87;32.97;;;-1.70;99.90;;;;;;4969428;28;20500;-72
2022/03/06 07:11:39;;;;;;;43.33;31.17;;;-1.60;99.90;;;;;;4970666;28;21420;-74
2022/03/06 07:14:06;;;;;;;37.47;32.23;;;-1.40;99.90;;;;;;4969752;28;20475;-74
2022/03/06 07:16:33;;;;;;;43.77;32.63;;;-1.30;99.90;;;;;;4970308;28;20974;-71
2022/03/06 07:19:00;;;;;;;53.67;35.17;;;-1.20;99.90;;;;;;4969836;28;20585;-74
2022/03/06 07:21:27;;;;;;;49.23;35.70;;;-1.00;99.90;;;;;;4969972;28;20641;-74
2022/03/06 07:23:54;;;;;;;46.30;37.00;;;-0.90;99.90;;;;;;4972611;28;20472;-73
2022/03/06 07:26:21;;;;;;;41.93;32.87;;;-0.80;99.90;;;;;;4972185;28;20481;-73
2022/03/06 07:28:49;;;;;;;44.40;35.90;;;-0.90;99.90;;;;;;4971011;28;20502;-72
2022/03/06 07:31:16;;;;;;;52.13;37.50;;;-0.90;99.90;;;;;;4974042;28;20465;-73
2022/03/06 07:33:43;;;;;;;40.93;33.50;;;-0.90;99.90;;;;;;4972483;28;20469;-73
2022/03/06 07:36:09;;;;;;;44.97;35.57;;;-1.00;99.90;;;;;;4971806;28;20727;-76
2022/03/06 07:38:36;;;;;;;51.93;36.60;;;-1.00;99.90;;;;;;4972107;28;20544;-71
2022/03/06 07:41:03;;;;;;;44.80;33.83;;;-0.90;99.90;;;;;;4973369;28;20473;-73
2022/03/06 07:43:30;;;;;;;51.10;36.73;;;-0.90;99.90;;;;;;4974064;28;20461;-71
2022/03/06 07:45:59;;;;;;;59.27;36.63;;;-0.80;99.90;;;;;;4973917;28;20570;-72
2022/03/06 07:48:25;;;;;;;48.73;36.30;;;-0.80;99.90;;;;;;4972765;28;20878;-74
2022/03/06 07:50:53;;;;;;;53.33;39.50;;;-0.70;99.90;;;;;;4973825;28;21254;-74
2022/03/06 07:53:20;;;;;;;53.93;39.57;;;-0.60;99.90;;;;;;4970880;28;21045;-73
2022/03/06 07:55:46;;;;;;;49.67;39.70;;;-0.50;99.90;;;;;;4971585;28;21049;-74
2022/03/06 07:58:14;;;;;;;45.63;37.10;;;-0.40;99.90;;;;;;4973802;28;20466;-74
2022/03/06 08:00:41;;;;;;;56.73;41.20;;;-0.30;99.90;;;;;;5006511;28;20462;-74
2022/03/06 08:03:09;;;;;;;47.27;40.60;;;-0.30;99.90;;;;;;4980021;28;20672;-74
2022/03/06 08:05:36;;;;;;;51.70;39.90;;;-0.20;99.90;;;;;;4970940;28;20466;-73
2022/03/06 08:08:03;;;;;;;54.53;42.80;;;-0.10;99.90;;;;;;4969484;28;20525;-75
2022/03/06 08:10:30;;;;;;;52.80;40.80;;;0.10;99.90;;;;;;4969322;28;20469;-74
2022/03/06 08:12:57;;;;;;;55.47;41.10;;;0.20;99.90;;;;;;4970460;28;20497;-75
2022/03/06 08:15:24;;;;;;;50.00;40.07;;;0.30;99.90;;;;;;4970897;28;20469;-74
2022/03/06 08:17:51;;;;;;;48.10;39.07;;;0.40;99.90;;;;;;4971254;28;21292;-73
2022/03/06 08:20:19;;;;;;;58.20;39.77;;;0.50;99.90;;;;;;4970389;28;20455;-73
2022/03/06 08:22:46;;;;;;;47.30;39.77;;;0.70;99.90;;;;;;4975120;28;20469;-71
2022/03/06 08:25:13;;;;;;;56.57;38.50;;;0.80;99.90;;;;;;4997021;28;20629;-74
2022/03/06 08:27:41;;;;;;;46.87;39.83;;;1.00;99.90;;;;;;4984991;28;20490;-75
2022/03/06 08:30:08;;;;;;;48.37;37.47;;;1.20;99.90;;;;;;4970738;28;21010;-76
2022/03/06 08:32:35;;;;;;;46.40;37.43;;;1.40;99.90;;;;;;4970938;28;20466;-75
2022/03/06 08:35:02;;;;;;;43.63;37.53;;;1.60;99.90;;;;;;4972040;28;20485;-75
2022/03/06 08:37:30;;;;;;;47.47;38.27;;;1.70;99.90;;;;;;4972080;28;20591;-75
2022/03/06 08:39:57;;;;;;;46.03;36.77;;;1.90;99.90;;;;;;4971311;28;20490;-75
2022/03/06 08:42:25;;;;;;;44.70;37.50;;;2.00;99.90;;;;;;4982479;28;20819;-71
2022/03/06 08:44:53;;;;;;;47.10;36.90;;;2.20;99.90;;;;;;5000263;28;21161;-70
2022/03/06 08:47:20;;;;;;;46.90;36.83;;;2.40;99.90;;;;;;4981227;28;21028;-73
2022/03/06 08:49:48;;;;;;;42.10;35.87;;;2.50;99.90;;;;;;4972286;28;20498;-74
2022/03/06 08:52:15;;;;;;;38.93;34.53;;;2.50;99.90;;;;;;4972280;28;20473;-74
2022/03/06 08:54:43;;;;;;;49.03;37.20;;;2.60;99.90;;;;;;4972096;28;20462;-72
2022/03/06 08:57:10;;;;;;;48.37;36.50;;;2.60;99.90;;;;;;4972205;28;21126;-73
2022/03/06 08:59:37;;;;;;;43.53;35.37;;;2.70;99.90;;;;;;4971656;28;20474;-74
2022/03/06 09:02:05;;;;;;;51.60;35.53;;;2.70;99.90;;;;;;4973188;28;21454;-71
2022/03/06 09:04:33;;;;;;;47.03;35.20;;;2.80;99.90;;;;;;4972151;28;20583;-73
2022/03/06 09:07:01;;;;;;;43.03;33.70;;;3.10;99.90;;;;;;4971105;28;20977;-71
2022/03/06 09:09:27;;;;;;;46.93;34.17;;;3.30;99.90;;;;;;4970487;28;21052;-74
2022/03/06 09:11:57;;;;;;;39.80;32.60;;;3.50;99.90;;;;;;4972099;28;20524;-73
2022/03/06 09:14:24;;;;;;;38.73;33.57;;;3.70;99.90;;;;;;4972098;28;20606;-73
2022/03/06 09:16:51;;;;;;;40.47;33.87;;;3.80;99.90;;;;;;4972477;28;20507;-73
2022/03/06 09:19:18;;;;;;;37.37;33.40;;;3.90;99.90;;;;;;4971413;28;20461;-70
2022/03/06 09:21:46;;;;;;;40.67;32.60;;;4.10;99.90;;;;;;4970487;28;20918;-71
2022/03/06 09:24:13;;;;;;;42.50;33.70;;;4.30;99.90;;;;;;4971267;28;20466;-72
2022/03/06 09:26:40;;;;;;;38.03;32.20;;;4.60;99.90;;;;;;4970536;28;21149;-72
2022/03/06 09:29:08;;;;;;;38.17;33.33;;;4.70;99.90;;;;;;4972556;28;20506;-70
2022/03/06 09:31:35;;;;;;;42.27;32.20;;;4.80;99.90;;;;;;4971237;28;20472;-73
2022/03/06 09:34:02;;;;;;;36.80;31.33;;;5.00;99.90;;;;;;4972073;28;20478;-71
2022/03/06 09:36:29;;;;;;;45.80;33.63;;;5.00;99.90;;;;;;4970533;28;20487;-73
2022/03/06 09:38:56;;;;;;;35.93;31.47;;;5.10;99.90;;;;;;4970768;28;20621;-72
2022/03/06 09:41:27;;;;;;;39.53;32.83;;;5.10;99.90;;;;;;4972142;28;20482;-74
2022/03/06 09:43:55;;;;;;;43.13;33.40;;;5.20;99.90;;;;;;4971907;28;20486;-73
2022/03/06 09:46:24;;;;;;;36.83;32.27;;;5.10;99.90;;;;;;4972431;28;20989;-73
2022/03/06 09:48:52;;;;;;;40.20;33.87;;;5.20;99.90;;;;;;4971139;28;22417;-72
2022/03/06 09:51:19;;;;;;;39.10;31.40;;;5.40;99.90;;;;;;4971570;28;20472;-73
2022/03/06 09:53:51;;;;;;;39.10;30.70;;;5.40;99.90;;;;;;4970708;28;21224;-71
2022/03/06 09:56:18;;;;;;;35.37;31.67;;;5.40;99.90;;;;;;4972922;28;21036;-74
2022/03/06 09:58:45;;;;;;;35.40;30.37;;;5.50;99.90;;;;;;4971481;28;20477;-72
2022/03/06 10:01:12;;;;;;;34.23;30.17;;;5.50;99.90;;;;;;4969875;28;20887;-74
2022/03/06 10:03:40;;;;;;;35.93;30.80;;;5.80;99.90;;;;;;4971871;28;20450;-73
2022/03/06 10:06:12;;;;;;;36.80;31.47;;;5.80;99.90;;;;;;4969109;28;20466;-73
2022/03/06 10:08:41;;;;;;;34.67;30.23;;;6.00;99.90;;;;;;4970396;28;20492;-73
2022/03/06 10:11:10;;;;;;;37.47;31.60;;;6.20;99.90;;;;;;4969929;28;20478;-72
2022/03/06 10:13:44;;;;;;;33.23;29.67;;;6.60;99.90;;;;;;4969664;28;20511;-72
2022/03/06 10:16:13;;;;;;;35.90;30.07;;;6.60;99.90;;;;;;4970630;28;20462;-74
2022/03/06 10:18:43;;;;;;;35.30;31.10;;;6.80;99.90;;;;;;4970633;28;20462;-73
2022/03/06 10:21:24;;;;;;;34.80;30.47;;;7.30;99.90;;;;;;4969748;28;21019;-74
2022/03/06 10:23:52;;;;;;;33.50;28.13;;;8.00;99.90;;;;;;4968873;28;20603;-72
2022/03/06 10:26:22;;;;;;;32.53;28.90;;;8.20;99.90;;;;;;4968719;28;20541;-75
2022/03/06 10:28:51;;;;;;;31.70;28.30;;;8.40;99.90;;;;;;4969585;28;20499;-74
2022/03/06 10:31:19;;;;;;;32.97;29.43;;;8.40;99.90;;;;;;4968901;28;20497;-74
2022/03/06 10:34:00;;;;;;;31.97;28.67;;;8.50;99.90;;;;;;4969646;28;20470;-73
2022/03/06 10:36:31;;;;;;;33.80;30.33;;;8.40;99.20;;;;;;4969248;28;20504;-74
2022/03/06 10:39:00;;;;;;;34.90;28.17;;;8.00;99.90;;;;;;4970132;28;20502;-75
2022/03/06 10:41:35;;;;;;;31.70;28.33;;;8.20;99.90;;;;;;4970590;28;20787;-74
2022/03/06 10:44:09;;;;;;;33.73;28.67;;;8.20;99.90;;;;;;4969900;28;20465;-73
2022/03/06 10:46:37;;;;;;;33.80;28.50;;;8.40;99.50;;;;;;4969120;28;20866;-73
2022/03/06 10:49:12;;;;;;;31.63;28.47;;;8.60;98.90;;;;;;4970055;28;20490;-72
2022/03/06 10:51:44;;;;;;;34.23;29.90;;;8.70;98.90;;;;;;4970016;28;20858;-74
2022/03/06 10:54:13;;;;;;;35.87;30.40;;;8.30;98.60;;;;;;4969643;28;20466;-76
2022/03/06 10:56:40;;;;;;;39.17;29.60;;;8.30;98.10;;;;;;4972189;28;20462;-74
2022/03/06 10:59:08;;;;;;;32.90;29.53;;;8.50;98.10;;;;;;4973923;28;20473;-73
2022/03/06 11:01:37;;;;;;;33.13;29.83;;;8.70;98.10;;;;;;4973056;28;20466;-74
2022/03/06 11:04:07;;;;;;;33.00;29.60;;;9.30;97.40;;;;;;4972999;28;20811;-74
2022/03/06 11:06:40;;;;;;;31.37;28.13;;;8.80;96.90;;;;;;4973038;28;20494;-73
2022/03/06 11:09:26;;;;;;;32.30;29.37;;;9.20;96.50;;;;;;4973650;28;20957;-72
2022/03/06 11:11:53;;;;;;;33.00;29.60;;;10.00;95.60;;;;;;4969970;28;20461;-74
2022/03/06 11:14:20;;;;;;;35.50;31.70;;;9.80;94.70;;;;;;4972441;28;20573;-74
2022/03/06 11:16:48;;;;;;;34.37;31.00;;;9.90;95.20;;;;;;4972439;28;20465;-76
2022/03/06 11:19:16;;;;;;;33.97;30.40;;;10.00;94.50;;;;;;4973306;28;20475;-76
2022/03/06 11:21:46;;;;;;;34.17;30.17;;;9.60;95.00;;;;;;4971577;28;20690;-73
2022/03/06 11:24:17;;;;;;;32.40;29.20;;;9.70;94.50;;;;;;4973629;28;20464;-74
2022/03/06 11:27:09;;;;;;;26.87;24.33;;;10.00;93.40;;;;;;4972556;28;20881;-74
2022/03/06 11:30:00;;;;;;;31.60;28.50;;;9.70;93.00;;;;;;4971953;28;20490;-73
2022/03/06 11:32:28;;;;;;;36.33;32.70;;;9.20;93.50;;;;;;4972405;28;20553;-73
2022/03/06 11:35:07;;;;;;;35.17;31.50;;;9.60;94.80;;;;;;4972201;28;20462;-73
2022/03/06 11:37:51;;;;;;;33.03;29.53;;;10.00;94.10;;;;;;4973260;28;20494;-75
2022/03/06 11:40:45;;;;;;;31.87;28.57;;;11.20;93.40;;;;;;4972173;28;21081;-73
2022/03/06 11:43:30;;;;;;;31.83;28.63;;;11.00;93.00;;;;;;4972723;28;20782;-73
2022/03/06 11:46:05;;;;;;;32.60;29.40;;;11.80;91.60;;;;;;4972909;28;20541;-75
2022/03/06 11:49:11;;;;;;;33.47;30.13;;;12.00;90.20;;;;;;4971822;28;20856;-75
2022/03/06 11:51:51;;;;;;;32.27;29.10;;;12.20;90.70;;;;;;4972614;28;20828;-74
2022/03/06 11:54:23;;;;;;;33.23;29.70;;;11.80;88.50;;;;;;4972391;28;20698;-73
2022/03/06 11:57:02;;;;;;;33.40;30.20;;;12.10;89.90;;;;;;4972248;28;20550;-73
2022/03/06 11:59:44;;;;;;;31.33;28.43;;;12.50;85.80;;;;;;4970870;28;20767;-73
2022/03/06 12:02:25;;;;;;;31.13;28.17;;;12.20;84.40;;;;;;4972825;28;20458;-75
2022/03/06 12:04:56;;;;;;;31.63;28.47;;;11.80;84.60;;;;;;4972696;28;20466;-73
2022/03/06 12:07:26;;;;;;;32.33;28.97;;;11.40;84.30;;;;;;4970191;28;20454;-74
2022/03/06 12:09:54;;;;;;;31.27;28.47;;;11.60;83.00;;;;;;4972040;28;20653;-73
2022/03/06 12:12:22;;;;;;;31.23;28.13;;;12.00;84.50;;;;;;4972438;28;20550;-74
2022/03/06 12:14:51;;;;;;;33.13;29.57;;;12.50;80.40;;;;;;4972678;28;20998;-76
2022/03/06 12:17:23;;;;;;;31.10;28.30;;;12.40;78.70;;;;;;4972233;28;20722;-71
2022/03/06 12:20:26;;;;;;;29.93;27.07;;;13.00;77.60;;;;;;4970975;28;20454;-75
2022/03/06 12:23:02;;;;;;;27.77;24.77;;;13.40;74.30;;;;;;4971276;28;20462;-73
2022/03/06 12:25:33;;;;;;;26.67;24.43;;;13.60;66.10;;;;;;4971141;28;20500;-75
2022/03/06 12:28:19;;;;;;;27.70;25.30;;;13.20;65.30;;;;;;4970747;28;20481;-73
2022/03/06 12:30:49;;;;;;;26.50;24.33;;;12.80;62.10;;;;;;4972770;28;20517;-74
2022/03/06 12:33:35;;;;;;;28.50;24.70;;;12.70;60.80;;;;;;4972084;28;20549;-74
2022/03/06 12:36:14;;;;;;;27.07;24.73;;;13.10;59.70;;;;;;4971135;28;21052;-73
2022/03/06 12:38:47;;;;;;;28.37;25.90;;;13.20;58.60;;;;;;4971821;28;20473;-74
2022/03/06 12:41:15;;;;;;;27.40;24.70;;;13.00;59.00;;;;;;4971767;28;20541;-73